Flight Track Log - Related Links

Times and Time Zones

All times are in EDT time to prevent confusion due to time zone crossing. See the DCM7075 flight status page for this flight to view local times or setup timezone preferences in your user account.

Time Position Orientation Groundspeed Altitude Reporting Facility
EDT Latitude Longitude Course Direction KTS MPH feet Rate Location/Type
Wed 07:18:01 AM 27.9000 -82.6833 221° Southwest 136 157 500  Level Tampa TRACON
Wed 07:19:01 AM 27.8667 -82.7167 221° Southwest 205 236 1,600 1,429 Climbing Tampa TRACON
Wed 07:20:07 AM 27.8500 -82.8000 257° West 257 296 3,500 1,853 Climbing Tampa TRACON
Wed 07:22:12 AM 27.7950 -82.9297 244° Southwest 225 259 7,500 1,935 Climbing Miami Center
Wed 07:23:13 AM 27.7806 -82.9969 256° West 223 257 9,500 1,869 Climbing Miami Center
Wed 07:24:14 AM 27.7661 -83.0636 256° West 221 254 11,300 1,736 Climbing Miami Center
Wed 07:25:14 AM 27.7506 -83.1303 255° West 221 254 13,000 1,438 Climbing Miami Center
Wed 07:26:15 AM 27.7594 -83.2011 278° West 222 255 14,200 1,082 Climbing Miami Center
Wed 07:27:16 AM 27.7669 -83.2786 276° West 246 283 15,200 1,033 Climbing Miami Center
Wed 07:28:17 AM 27.7711 -83.3597 273° West 254 292 16,300 1,131 Climbing Miami Center
Wed 07:29:18 AM 27.7758 -83.4392 274° West 257 296 17,500 1,082 Climbing Miami Center
Wed 07:30:19 AM 27.7714 -83.5169 266° West 251 289 18,500 1,033 Climbing Miami Center
Wed 07:31:20 AM 27.7778 -83.5939 275° West 250 288 19,600 1,131 Climbing Miami Center
Wed 07:32:21 AM 27.7844 -83.6878 275° West 250 288 20,800 992 Climbing Miami Center
Wed 07:33:21 AM 27.8067 -83.7661 288° West 258 297 21,600 793 Climbing Miami Center
Wed 07:34:22 AM 27.8281 -83.8469 287° West 264 304 22,400 787 Climbing Miami Center
Wed 07:35:23 AM 27.8456 -83.9286 284° West 266 306 23,200 836 Climbing Miami Center
Wed 07:36:24 AM 27.8669 -84.0114 286° West 269 310 24,100 787 Climbing Miami Center
Wed 07:37:25 AM 27.8861 -84.0939 285° West 270 311 24,800 738 Climbing Miami Center
Wed 07:38:26 AM 27.9053 -84.1769 285° West 271 312 25,600 787 Climbing Miami Center
Wed 07:39:27 AM 27.9242 -84.2597 284° West 271 312 26,400 787 Climbing Miami Center
Wed 07:40:28 AM 27.9447 -84.3428 286° West 271 312 27,200 738 Climbing Miami Center
Wed 07:41:29 AM 27.9750 -84.4194 294° West 276 318 27,900 738 Climbing Miami Center
Wed 07:42:30 AM 28.0106 -84.5192 292° West 281 323 28,700 689 Climbing Miami Center
Wed 07:43:31 AM 28.0406 -84.6022 292° West 283 326 29,300 595 Climbing Miami Center
Wed 07:44:31 AM 28.0686 -84.6872 291° West 293 337 29,900 500 Climbing Jacksonville Center
Wed 07:45:31 AM 28.0989 -84.7653 294° West 293 337 30,300 450 Climbing Jacksonville Center
Wed 07:46:31 AM 28.1289 -84.8506 292° West 293 337 30,800 500 Climbing Jacksonville Center
Wed 07:47:31 AM 28.1608 -84.9431 291° West 302 348 31,300 500 Climbing Jacksonville Center
Wed 07:48:31 AM 28.1928 -85.0331 292° West 302 348 31,800 500 Climbing Jacksonville Center
Wed 07:49:31 AM 28.2247 -85.1092 295° West 303 349 32,300 500 Climbing Jacksonville Center
Wed 07:50:31 AM 28.2564 -85.2042 291° West 303 349 32,800 500 Climbing Jacksonville Center
Wed 07:51:31 AM 28.2861 -85.2944 291° West 303 349 33,300 500 Climbing Jacksonville Center
Wed 07:52:31 AM 28.3158 -85.3825 291° West 309 356 33,800 500 Climbing Jacksonville Center
Wed 07:53:31 AM 28.3494 -85.4706 293° West 309 356 34,300 500 Climbing Jacksonville Center
Wed 07:54:31 AM 28.3808 -85.5633 291° West 309 356 34,800 500 Climbing Jacksonville Center
Wed 07:55:31 AM 28.4144 -85.6586 292° West 309 356 35,300 500 Climbing Jacksonville Center
Wed 07:56:31 AM 28.4458 -85.7444 293° West 303 349 35,800 500 Climbing Jacksonville Center
Wed 07:57:31 AM 28.4753 -85.8350 290° West 303 349 36,300 450 Climbing Jacksonville Center
Wed 07:58:31 AM 28.5086 -85.9258 293° West 308 354 36,700 400 Climbing Jacksonville Center
Wed 07:59:31 AM 28.5397 -86.0142 292° West 308 354 37,100 400 Climbing Jacksonville Center
Wed 08:00:31 AM 28.5711 -86.1025 292° West 308 354 37,500 400 Climbing Jacksonville Center
Wed 08:01:31 AM 28.6019 -86.1956 291° West 308 354 37,900 250 Climbing Jacksonville Center
Wed 08:02:31 AM 28.6331 -86.2867 291° West 314 361 38,000 50 Climbing Jacksonville Center
Wed 08:03:31 AM 28.6681 -86.3778 294° West 314 361 38,000  Level Jacksonville Center
Wed 08:04:31 AM 28.6989 -86.4711 291° West 320 368 38,000  Level Jacksonville Center
Wed 08:05:31 AM 28.7317 -86.5669 291° West 315 362 38,000  Level Jacksonville Center
Wed 08:06:31 AM 28.7769 -86.6586 299° West 315 362 38,000  Level Jacksonville Center
Wed 08:07:31 AM 28.8331 -86.7436 307° West 330 380 38,000  Level Jacksonville Center
Wed 08:08:31 AM 28.8886 -86.8311 306° West 335 386 38,000  Level Jacksonville Center
Wed 08:09:31 AM 28.9425 -86.9139 307° West 341 392 38,000  Level Jacksonville Center
Wed 08:10:31 AM 29.0003 -87.0017 307° West 341 392 38,000  Level Jacksonville Center
Wed 08:11:31 AM 29.0578 -87.0894 307° West 341 392 38,000  Level Jacksonville Center
Wed 08:12:23 AM 29.0994 -87.1500 308° West 338 389 38,000  Level Houston Center
Wed 08:13:24 AM 29.1547 -87.2342 307° West 335 386 38,000  Level Houston Center
Wed 08:14:25 AM 29.2111 -87.3197 307° West 335 386 38,000  Level Houston Center
Wed 08:15:27 AM 29.2675 -87.4047 307° West 335 386 38,000  Level Houston Center
Wed 08:16:28 AM 29.3236 -87.4892 307° West 335 386 38,000  Level Houston Center
Wed 08:17:30 AM 29.3819 -87.5772 307° West 335 386 38,000  Level Houston Center
Wed 08:18:31 AM 29.4511 -87.6792 308° West 336 387 38,000  Level Houston Center
Wed 08:19:33 AM 29.5094 -87.7631 309° West 337 388 38,000  Level Houston Center
Wed 08:20:34 AM 29.5686 -87.8475 309° West 338 389 38,000  Level Houston Center
Wed 08:21:36 AM 29.6283 -87.9292 310° West 338 389 38,000  Level Houston Center
Wed 08:22:37 AM 29.6850 -88.0133 308° West 336 387 38,000  Level Houston Center
Wed 08:23:39 AM 29.6989 -88.1142 279° West 318 366 38,000  Level Houston Center
Wed 08:24:40 AM 29.7081 -88.2144 276° West 317 365 38,000  Level Houston Center
Wed 08:25:42 AM 29.7175 -88.3114 276° West 308 354 38,000 -634 Level Houston Center
Wed 08:26:43 AM 29.7281 -88.4264 276° West 315 362 36,700 -1,659 Descending Houston Center
Wed 08:27:45 AM 29.7353 -88.5356 274° West 340 391 34,600 -2,081 Descending Houston Center
Wed 08:28:47 AM 29.7475 -88.6419 278° West 339 390 32,400 -2,146 Descending Houston Center
Wed 08:29:48 AM 29.7661 -88.7483 281° West 339 390 30,200 -2,195 Descending Houston Center
Wed 08:30:50 AM 29.7833 -88.8564 280° West 340 391 27,900 -2,244 Descending Houston Center
Wed 08:31:51 AM 29.7992 -88.9614 280° West 337 388 25,600 -2,439 Descending Houston Center
Wed 08:32:53 AM 29.8194 -89.0869 281° West 335 386 22,900 -2,419 Descending Houston Center
Wed 08:33:55 AM 29.8353 -89.1886 280° West 328 377 20,600 -2,226 Descending Houston Center
Wed 08:34:57 AM 29.8494 -89.2869 279° West 317 365 18,300 -2,244 Descending Houston Center
Wed 08:35:58 AM 29.8717 -89.3844 285° West 316 364 16,000 -2,282 Descending Houston Center
Wed 08:36:08 AM 29.8767 -89.4067 285° West 312 359 15,600 -2,129 Descending Houston Center
Wed 08:37:00 AM 29.8928 -89.4817 284° West 316 364 13,800 -2,149 Descending Houston Center
Wed 08:37:15 AM 29.9014 -89.5181 285° West 312 359 13,200 -1,742 Descending Houston Center
Wed 08:38:02 AM 29.9131 -89.5758 283° West 309 356 12,000 -1,770 Descending Houston Center
Wed 08:38:16 AM 29.9214 -89.6108 285° West 299 344 11,400 -1,742 Descending Houston Center
Wed 08:39:04 AM 29.9347 -89.6669 285° West 300 345 10,200 -1,800 Descending Houston Center
Wed 08:39:16 AM 29.9414 -89.6986 284° West 283 326 9,600 -1,935 Descending Houston Center
Wed 08:40:06 AM 29.9506 -89.7642 279° West 279 321 8,200 -1,622 Descending Houston Center
Wed 08:41:07 AM 29.9425 -89.8522 264° West 280 322 6,600 -1,571 Descending Houston Center
Wed 08:42:12 AM 29.9328 -89.9389 263° West 252 290 4,900 -1,258 Descending Houston Center
Wed 08:43:11 AM 29.9286 -90.0031 266° West 236 272 4,000 -446 Descending Houston Center
Wed 08:44:13 AM 29.9406 -90.0531 285° West 186 214 4,000  Level Houston Center
Wed 08:44:26 AM 29.9453 -90.0681 290° West 150 173 4,000 -968 Level Houston Center
Wed 08:45:15 AM 29.9531 -90.1014 285° West 162 186 3,000 -1,189 Descending Houston Center
Wed 08:46:17 AM 29.9639 -90.1442 286° West 152 175 1,800 -823 Descending Houston Center
Wed 08:47:19 AM 29.9719 -90.1778 285° West 132 152 1,300 -571 Descending Houston Center
Wed 08:48:23 AM 29.9814 -90.2200 284° West 112 129 600 -387 Descending Houston Center
Wed 08:49:23 AM 29.9903 -90.2528 287° West 116 133 500 -100 Descending Houston Center
Wed 08:51:00 AM 29.9833 -90.2500 281° West  Level FlightAware Approximate
Wed 08:58:00 AM 29.9933 -90.2590 281° West  Level Estimated
Wed 08:59:00 AM 29.9933 -90.2590 142° Southeast  Level Estimated

Login

Don't have an account? Register now (free) for customized features, flight alerts, and more!